Time;durP1;ratioP1;P1;durP2;ratioP2;P2;SDS_P1;SDS_P2;PMS_P1;PMS_P2;Temp;Humidity;BMP_temperature;BMP_pressure;BME280_temperature;BME280_humidity;BME280_pressure;Samples;Min_cycle;Max_cycle;Signal;HPM_P1;HPM_P2
2021/08/02 00:02:20;;;;;;;3.13;0.77;;;14.50;99.90;;;;;;5078665;28;20040;-69
2021/08/02 00:04:53;;;;;;;3.65;0.60;;;14.50;99.90;;;;;;5076992;28;20048;-70
2021/08/02 00:07:21;;;;;;;4.75;0.90;;;14.50;99.90;;;;;;5089770;28;20492;-69
2021/08/02 00:09:49;;;;;;;4.10;1.35;;;14.50;99.90;;;;;;5088808;28;20036;-70
2021/08/02 00:12:26;;;;;;;5.45;0.75;;;14.60;99.90;;;;;;5089794;28;20035;-70
2021/08/02 00:14:55;;;;;;;4.25;0.65;;;14.60;99.90;;;;;;5089030;28;20036;-70
2021/08/02 00:17:21;;;;;;;1.92;0.65;;;14.60;99.90;;;;;;5056260;28;20044;-70
2021/08/02 00:19:47;;;;;;;5.32;0.95;;;14.60;99.90;;;;;;5075436;28;20043;-70
2021/08/02 00:22:12;;;;;;;4.18;0.70;;;14.60;99.90;;;;;;5058822;28;20032;-70
2021/08/02 00:24:38;;;;;;;7.28;0.70;;;14.60;99.90;;;;;;5075250;28;20044;-70
2021/08/02 00:27:04;;;;;;;4.05;0.70;;;14.50;99.90;;;;;;5069072;28;20024;-70
2021/08/02 00:29:31;;;;;;;2.92;0.57;;;14.50;99.90;;;;;;5069050;28;20028;-70
2021/08/02 00:31:59;;;;;;;4.40;1.13;;;14.50;99.90;;;;;;5068599;28;20025;-70
2021/08/02 00:34:25;;;;;;;5.88;0.85;;;14.50;99.90;;;;;;5084227;28;20082;-69
2021/08/02 00:37:02;;;;;;;2.78;0.60;;;14.50;99.90;;;;;;5085689;28;20016;-70
2021/08/02 00:39:34;;;;;;;9.88;0.82;;;14.50;99.90;;;;;;5081015;28;20028;-70
2021/08/02 00:42:05;;;;;;;3.08;0.63;;;14.60;99.90;;;;;;5089021;28;20039;-70
2021/08/02 00:45:01;;;;;;;2.45;0.40;;;14.60;99.90;;;;;;5089181;28;20093;-70
2021/08/02 00:47:32;;;;;;;5.82;0.52;;;14.60;99.90;;;;;;5088715;28;20453;-70
2021/08/02 00:50:11;;;;;;;3.40;0.85;;;14.60;99.90;;;;;;5070932;28;20447;-70
2021/08/02 00:52:41;;;;;;;3.45;0.35;;;14.60;99.90;;;;;;5070579;28;20431;-69
2021/08/02 00:55:08;;;;;;;2.63;0.47;;;14.60;99.90;;;;;;5070780;28;20036;-70
2021/08/02 00:57:37;;;;;;;1.50;0.60;;;14.60;99.90;;;;;;5079534;28;20047;-69
2021/08/02 01:00:25;;;;;;;9.10;0.75;;;14.60;99.90;;;;;;5080630;28;20047;-69
2021/08/02 01:02:52;;;;;;;4.03;0.65;;;14.60;99.90;;;;;;5089455;28;20055;-69
2021/08/02 01:05:19;;;;;;;5.22;0.60;;;14.60;99.90;;;;;;5088991;28;20388;-70
2021/08/02 01:07:47;;;;;;;2.13;0.70;;;14.60;99.90;;;;;;5070825;28;20020;-70
2021/08/02 01:10:14;;;;;;;9.93;1.20;;;14.60;99.90;;;;;;5088398;28;20024;-70
2021/08/02 01:12:46;;;;;;;3.03;0.43;;;14.60;99.90;;;;;;5087256;28;20108;-69
2021/08/02 01:15:12;;;;;;;5.13;0.80;;;14.50;99.90;;;;;;5068049;28;20028;-70
2021/08/02 01:17:38;;;;;;;5.63;1.35;;;14.50;99.90;;;;;;5081037;28;20028;-70
2021/08/02 01:20:04;;;;;;;7.10;1.25;;;14.50;99.90;;;;;;5081285;28;20054;-70
2021/08/02 01:22:31;;;;;;;1.58;0.70;;;14.40;99.90;;;;;;5076445;28;20496;-70
2021/08/02 01:24:58;;;;;;;1.35;0.63;;;14.40;99.90;;;;;;5088150;28;20023;-71
2021/08/02 01:27:46;;;;;;;3.22;0.80;;;14.40;99.90;;;;;;5088543;28;20024;-70
2021/08/02 01:30:19;;;;;;;2.38;0.90;;;14.40;99.90;;;;;;5047518;28;20096;-69
2021/08/02 01:32:46;;;;;;;5.68;1.02;;;14.40;99.90;;;;;;5053728;28;20055;-70
2021/08/02 01:35:13;;;;;;;3.47;0.73;;;14.40;99.90;;;;;;5049574;28;20025;-69
2021/08/02 01:37:43;;;;;;;2.38;1.00;;;14.40;99.90;;;;;;5056049;28;20044;-69
2021/08/02 01:40:09;;;;;;;4.35;0.90;;;14.40;99.90;;;;;;5073480;28;20167;-70
2021/08/02 01:42:36;;;;;;;9.40;0.85;;;14.50;99.90;;;;;;5069238;28;20126;-69
2021/08/02 01:45:02;;;;;;;4.93;0.60;;;14.50;99.90;;;;;;5088195;28;20093;-70
2021/08/02 01:48:08;;;;;;;6.95;1.45;;;14.50;99.90;;;;;;5087926;28;20393;-69
2021/08/02 01:50:59;;;;;;;4.93;0.70;;;14.50;99.90;;;;;;5070499;28;20068;-70
2021/08/02 01:53:33;;;;;;;2.97;0.75;;;14.50;99.90;;;;;;5091518;28;20560;-69
2021/08/02 01:56:08;;;;;;;5.00;0.60;;;14.50;99.90;;;;;;5092038;28;20059;-69
2021/08/02 01:58:43;;;;;;;3.78;0.90;;;14.50;99.90;;;;;;5090742;28;20376;-69
2021/08/02 02:01:09;;;;;;;5.22;0.90;;;14.50;99.90;;;;;;5078209;28;20067;-69
2021/08/02 02:03:36;;;;;;;3.88;0.82;;;14.50;99.90;;;;;;5086160;28;20055;-69
2021/08/02 02:06:06;;;;;;;6.75;0.80;;;14.60;99.90;;;;;;5073994;28;20059;-69
2021/08/02 02:08:41;;;;;;;8.05;1.02;;;14.50;99.90;;;;;;5084757;28;20039;-70
2021/08/02 02:11:08;;;;;;;2.85;0.88;;;14.50;99.90;;;;;;5075465;28;20037;-69
2021/08/02 02:13:38;;;;;;;3.53;0.80;;;14.50;99.90;;;;;;5090327;28;20127;-69
2021/08/02 02:16:05;;;;;;;4.28;0.63;;;14.40;99.90;;;;;;5071516;28;20037;-69
2021/08/02 02:18:35;;;;;;;2.88;0.90;;;14.40;99.90;;;;;;5072285;28;20020;-70
2021/08/02 02:21:06;;;;;;;3.53;1.48;;;14.40;99.90;;;;;;5092094;28;20044;-69
2021/08/02 02:23:33;;;;;;;4.68;0.80;;;14.40;99.90;;;;;;5091732;28;20492;-69
2021/08/02 02:25:59;;;;;;;2.75;0.88;;;14.40;99.90;;;;;;5073619;28;20031;-69
2021/08/02 02:28:25;;;;;;;1.88;0.70;;;14.40;99.90;;;;;;5091487;28;20513;-69
2021/08/02 02:30:53;;;;;;;1.88;0.70;;;14.40;99.90;;;;;;5075583;28;20067;-69
2021/08/02 02:33:19;;;;;;;2.33;0.82;;;14.40;99.90;;;;;;5071172;28;20036;-70
2021/08/02 02:35:47;;;;;;;3.08;0.73;;;14.40;99.90;;;;;;5071352;28;20027;-69
2021/08/02 02:38:14;;;;;;;3.53;0.75;;;14.30;99.90;;;;;;5075798;28;20044;-69
2021/08/02 02:40:45;;;;;;;2.83;0.70;;;14.30;99.90;;;;;;5085702;28;20555;-69
2021/08/02 02:43:15;;;;;;;6.95;0.90;;;14.30;99.90;;;;;;5073266;28;20056;-69
2021/08/02 02:45:43;;;;;;;3.33;0.80;;;14.20;99.90;;;;;;5091074;28;20468;-69
2021/08/02 02:48:13;;;;;;;3.55;1.15;;;14.20;99.90;;;;;;5091689;28;20143;-69
2021/08/02 02:50:41;;;;;;;5.80;1.30;;;14.10;99.90;;;;;;5080306;28;20040;-69
2021/08/02 02:53:07;;;;;;;4.28;1.00;;;14.10;99.90;;;;;;5086072;28;20033;-70
2021/08/02 02:55:34;;;;;;;7.47;1.50;;;14.00;99.90;;;;;;5077973;28;20040;-69
2021/08/02 02:58:01;;;;;;;5.80;1.00;;;13.90;99.90;;;;;;5073167;28;20020;-69
2021/08/02 03:00:27;;;;;;;2.65;0.80;;;13.90;99.90;;;;;;5091081;28;20035;-70
2021/08/02 03:02:55;;;;;;;3.15;0.85;;;13.90;99.90;;;;;;5064422;28;20033;-69
2021/08/02 03:05:22;;;;;;;6.32;0.80;;;13.80;99.90;;;;;;5071100;28;20032;-69
2021/08/02 03:07:55;;;;;;;4.00;0.93;;;13.80;99.90;;;;;;5070059;28;20477;-69
2021/08/02 03:10:22;;;;;;;15.00;1.13;;;13.80;99.90;;;;;;5082843;28;20047;-69
2021/08/02 03:12:50;;;;;;;5.07;1.20;;;13.80;99.90;;;;;;5082494;28;20043;-69
2021/08/02 03:15:17;;;;;;;2.10;0.82;;;13.70;99.90;;;;;;5070804;28;20033;-69
2021/08/02 03:17:42;;;;;;;2.03;0.70;;;13.70;99.90;;;;;;5077976;28;20081;-69
2021/08/02 03:20:08;;;;;;;4.30;0.73;;;13.60;99.90;;;;;;5083812;28;20043;-69
2021/08/02 03:22:41;;;;;;;3.70;0.70;;;13.60;99.90;;;;;;5074207;28;20043;-69
2021/08/02 03:25:34;;;;;;;3.70;0.80;;;13.50;99.90;;;;;;5070458;28;20036;-69
2021/08/02 03:28:09;;;;;;;3.00;0.88;;;13.50;99.90;;;;;;5071568;28;20431;-69
2021/08/02 03:30:38;;;;;;;5.55;1.13;;;13.50;99.90;;;;;;5080091;28;20404;-69
2021/08/02 03:33:09;;;;;;;6.97;0.88;;;13.40;99.90;;;;;;5053451;28;20043;-69
2021/08/02 03:35:35;;;;;;;3.03;0.82;;;13.30;99.90;;;;;;5075416;28;20400;-69
2021/08/02 03:38:02;;;;;;;5.45;1.45;;;13.30;99.90;;;;;;5051881;28;20037;-69
2021/08/02 03:40:28;;;;;;;2.47;1.10;;;13.30;99.90;;;;;;5070263;28;20124;-69
2021/08/02 03:42:56;;;;;;;4.10;0.98;;;13.20;99.90;;;;;;5082770;28;20040;-69
2021/08/02 03:45:22;;;;;;;3.85;1.13;;;13.20;99.90;;;;;;5077797;28;20116;-69
2021/08/02 03:47:48;;;;;;;2.42;0.80;;;13.10;99.90;;;;;;5081416;28;20033;-69
2021/08/02 03:50:14;;;;;;;3.45;1.05;;;13.10;99.90;;;;;;5081786;28;20769;-69
2021/08/02 03:52:40;;;;;;;2.17;0.95;;;13.00;99.90;;;;;;5070465;28;20523;-69
2021/08/02 03:55:07;;;;;;;5.43;1.38;;;13.00;99.90;;;;;;5073411;28;20444;-69
2021/08/02 03:57:33;;;;;;;3.47;0.80;;;13.00;99.90;;;;;;5075590;28;20033;-69
2021/08/02 03:59:59;;;;;;;2.60;1.00;;;12.90;99.90;;;;;;5071243;28;20032;-69
2021/08/02 04:02:24;;;;;;;4.45;1.00;;;12.90;99.90;;;;;;5069669;28;20031;-69
2021/08/02 04:04:50;;;;;;;2.78;0.80;;;12.90;99.90;;;;;;5069782;28;20035;-69
2021/08/02 04:07:16;;;;;;;3.08;1.20;;;12.90;99.90;;;;;;5085630;28;20111;-69
2021/08/02 04:09:41;;;;;;;2.92;1.02;;;12.90;99.90;;;;;;5090040;28;20024;-69
2021/08/02 04:12:10;;;;;;;3.75;0.93;;;12.80;99.90;;;;;;5067251;28;20042;-69
2021/08/02 04:14:37;;;;;;;5.32;1.20;;;12.80;99.90;;;;;;5078575;28;20072;-69
2021/08/02 04:17:03;;;;;;;5.45;1.08;;;12.80;99.90;;;;;;5082914;28;20028;-69
2021/08/02 04:19:29;;;;;;;2.55;1.20;;;12.80;99.90;;;;;;5090151;28;20024;-69
2021/08/02 04:21:56;;;;;;;3.47;1.83;;;12.80;99.90;;;;;;5084066;28;20408;-69
2021/08/02 04:24:22;;;;;;;2.85;1.00;;;12.80;99.90;;;;;;5074371;28;20492;-69
2021/08/02 04:26:47;;;;;;;6.82;1.20;;;12.80;99.90;;;;;;5081222;28;20052;-69
2021/08/02 04:29:13;;;;;;;5.68;1.30;;;12.80;99.90;;;;;;5071415;28;20127;-69
2021/08/02 04:31:39;;;;;;;2.80;1.00;;;12.80;99.90;;;;;;5080453;28;20111;-69
2021/08/02 04:34:05;;;;;;;5.47;1.27;;;12.80;99.90;;;;;;5076836;28;20107;-69
2021/08/02 04:36:30;;;;;;;2.15;1.13;;;12.80;99.90;;;;;;5051228;28;20513;-69
2021/08/02 04:38:57;;;;;;;1.80;0.90;;;12.80;99.90;;;;;;5068789;28;20124;-69
2021/08/02 04:41:23;;;;;;;2.63;1.30;;;12.80;99.90;;;;;;5068935;28;20107;-69
2021/08/02 04:43:49;;;;;;;2.60;1.08;;;12.80;99.90;;;;;;5069007;28;20056;-69
2021/08/02 04:46:15;;;;;;;4.05;1.20;;;12.80;99.90;;;;;;5072718;28;20430;-69
2021/08/02 04:48:41;;;;;;;4.35;1.08;;;12.80;99.90;;;;;;5069029;28;20029;-69
2021/08/02 04:51:07;;;;;;;3.17;1.40;;;12.90;99.90;;;;;;5068585;28;20039;-69
2021/08/02 04:53:32;;;;;;;4.97;1.25;;;12.90;99.90;;;;;;5070434;28;20025;-69
2021/08/02 04:55:58;;;;;;;3.78;1.08;;;12.90;99.90;;;;;;5070286;28;20048;-70
2021/08/02 04:58:24;;;;;;;4.20;1.13;;;13.00;99.90;;;;;;5071210;28;20036;-69
2021/08/02 05:00:49;;;;;;;4.30;1.10;;;13.00;99.90;;;;;;5071673;28;20086;-69
2021/08/02 05:03:15;;;;;;;3.30;1.10;;;13.00;99.90;;;;;;5080534;28;20060;-69
2021/08/02 05:05:40;;;;;;;5.43;1.15;;;13.10;99.90;;;;;;5052456;28;20120;-70
2021/08/02 05:08:06;;;;;;;5.88;0.90;;;13.10;99.90;;;;;;5059015;28;20059;-67
2021/08/02 05:10:32;;;;;;;4.20;1.33;;;13.20;99.90;;;;;;5077745;28;20415;-67
2021/08/02 05:12:58;;;;;;;3.97;1.40;;;13.20;99.90;;;;;;5060759;28;20033;-67
2021/08/02 05:15:24;;;;;;;4.60;1.17;;;13.30;99.90;;;;;;5058082;28;20041;-67
2021/08/02 05:17:49;;;;;;;3.35;1.05;;;13.30;99.90;;;;;;5078883;28;20051;-67
2021/08/02 05:20:18;;;;;;;4.72;1.20;;;13.30;99.90;;;;;;5078751;28;20036;-66
2021/08/02 05:22:44;;;;;;;3.72;1.15;;;13.40;99.90;;;;;;5083322;28;20415;-67
2021/08/02 05:25:10;;;;;;;1.95;1.15;;;13.40;99.90;;;;;;5080309;28;20028;-66
2021/08/02 05:27:35;;;;;;;6.00;1.17;;;13.40;99.90;;;;;;5082412;28;20043;-66
2021/08/02 05:30:02;;;;;;;5.00;1.15;;;13.40;99.90;;;;;;5081242;28;20043;-66
2021/08/02 05:32:27;;;;;;;4.15;1.15;;;13.50;99.90;;;;;;5063967;28;20028;-67
2021/08/02 05:34:53;;;;;;;2.88;1.10;;;13.50;99.90;;;;;;5083461;28;20063;-67
2021/08/02 05:37:18;;;;;;;2.70;1.15;;;13.60;99.90;;;;;;5079323;28;20111;-66
2021/08/02 05:39:44;;;;;;;4.80;1.30;;;13.60;99.90;;;;;;5062389;28;20112;-66
2021/08/02 05:42:10;;;;;;;4.30;1.30;;;13.70;99.90;;;;;;5079644;28;20032;-66
2021/08/02 05:44:36;;;;;;;5.75;1.20;;;13.80;99.90;;;;;;5082257;28;20480;-66
2021/08/02 05:47:03;;;;;;;3.08;0.90;;;14.00;99.90;;;;;;5079979;28;20047;-66
2021/08/02 05:49:28;;;;;;;5.05;1.35;;;14.30;99.90;;;;;;5081778;28;20021;-67
2021/08/02 05:51:57;;;;;;;3.63;1.45;;;14.70;99.90;;;;;;5081243;28;20028;-66
2021/08/02 05:54:23;;;;;;;3.30;1.30;;;14.90;99.90;;;;;;5076577;28;20055;-67
2021/08/02 05:56:49;;;;;;;2.78;1.05;;;15.00;99.90;;;;;;5081301;28;20028;-67
2021/08/02 05:59:14;;;;;;;2.22;0.75;;;15.20;99.90;;;;;;5062324;28;20024;-67
2021/08/02 06:01:40;;;;;;;3.53;0.80;;;15.30;99.90;;;;;;5079754;28;20589;-67
2021/08/02 06:04:05;;;;;;;1.80;0.65;;;15.40;99.90;;;;;;5081659;28;20021;-66
2021/08/02 06:06:31;;;;;;;2.72;0.70;;;15.50;99.90;;;;;;5082137;28;20040;-67
2021/08/02 06:08:56;;;;;;;2.28;0.75;;;15.60;99.90;;;;;;5064835;28;20028;-67
2021/08/02 06:11:22;;;;;;;5.18;0.70;;;15.70;99.90;;;;;;5081119;28;20087;-67
2021/08/02 06:13:50;;;;;;;3.03;0.57;;;15.80;99.90;;;;;;5080582;28;20084;-66
2021/08/02 06:16:20;;;;;;;3.35;0.85;;;16.00;99.90;;;;;;5078063;28;20518;-67
2021/08/02 06:18:49;;;;;;;3.67;0.85;;;16.20;99.90;;;;;;5078335;28;20043;-67
2021/08/02 06:21:15;;;;;;;2.15;0.70;;;16.30;99.90;;;;;;5081025;28;20641;-67
2021/08/02 06:23:41;;;;;;;4.00;0.60;;;16.50;99.90;;;;;;5082034;28;20077;-66
2021/08/02 06:26:06;;;;;;;4.30;0.60;;;16.70;99.90;;;;;;5078926;28;20047;-67
2021/08/02 06:28:32;;;;;;;7.40;1.17;;;16.80;99.90;;;;;;5081956;28;20074;-67
2021/08/02 06:31:01;;;;;;;0.90;0.45;;;17.00;99.90;;;;;;5078172;28;20504;-67
2021/08/02 06:33:28;;;;;;;2.97;1.23;;;17.10;99.90;;;;;;5081487;28;20043;-67
2021/08/02 06:35:53;;;;;;;2.60;0.45;;;17.30;99.90;;;;;;5058810;28;20998;-67
2021/08/02 06:38:19;;;;;;;1.67;0.40;;;17.40;99.90;;;;;;5077499;28;20040;-67
2021/08/02 06:40:45;;;;;;;4.10;0.43;;;17.70;99.90;;;;;;5082720;28;20393;-67
2021/08/02 06:43:12;;;;;;;2.20;0.60;;;18.00;99.90;;;;;;5074146;28;20048;-67
2021/08/02 06:45:39;;;;;;;1.83;0.40;;;18.10;99.90;;;;;;5078123;28;20032;-67
2021/08/02 06:48:04;;;;;;;1.58;0.40;;;18.20;99.90;;;;;;5074266;28;20034;-67
2021/08/02 06:50:30;;;;;;;0.77;0.20;;;18.30;99.90;;;;;;5079338;28;20118;-71
2021/08/02 06:52:56;;;;;;;4.85;1.13;;;18.50;99.90;;;;;;5074790;28;20028;-67
2021/08/02 06:55:21;;;;;;;0.68;0.22;;;18.70;99.90;;;;;;5078824;28;20045;-67
2021/08/02 06:57:47;;;;;;;1.92;0.30;;;19.20;99.90;;;;;;5078848;28;20028;-68
2021/08/02 07:00:13;;;;;;;1.50;0.30;;;19.70;99.90;;;;;;5077797;28;20045;-67
2021/08/02 07:02:39;;;;;;;4.20;0.70;;;20.30;99.90;;;;;;5082978;28;20036;-67
2021/08/02 07:05:05;;;;;;;1.27;0.30;;;21.00;99.90;;;;;;5075057;28;20140;-67
2021/08/02 07:07:31;;;;;;;2.08;0.55;;;21.50;99.90;;;;;;5079363;28;20028;-67
2021/08/02 07:09:56;;;;;;;5.63;0.60;;;22.10;99.90;;;;;;5077728;28;20028;-68
2021/08/02 07:12:22;;;;;;;1.60;0.30;;;22.80;99.90;;;;;;5079318;28;20047;-67
2021/08/02 07:14:47;;;;;;;1.98;0.50;;;23.30;99.90;;;;;;5078665;28;20116;-67
2021/08/02 07:17:13;;;;;;;0.90;0.30;;;23.80;99.90;;;;;;5077915;28;20024;-67
2021/08/02 07:19:38;;;;;;;2.80;0.38;;;24.00;99.70;;;;;;5080794;28;20143;-67
2021/08/02 07:22:04;;;;;;;2.88;0.40;;;23.80;99.10;;;;;;5074525;28;20040;-67
2021/08/02 07:24:30;;;;;;;1.80;0.30;;;23.10;99.70;;;;;;5079753;28;20051;-67
2021/08/02 07:26:55;;;;;;;3.58;0.30;;;22.70;99.60;;;;;;5058073;28;20029;-68
2021/08/02 07:29:21;;;;;;;2.38;0.20;;;22.40;99.40;;;;;;5073672;28;20085;-67
2021/08/02 07:31:46;;;;;;;2.05;0.52;;;21.90;99.90;;;;;;5078436;28;20032;-67
2021/08/02 07:34:12;;;;;;;3.50;0.30;;;22.10;99.90;;;;;;5075528;28;20055;-67
2021/08/02 07:36:38;;;;;;;2.42;0.38;;;22.70;99.90;;;;;;5078153;28;20024;-67
2021/08/02 07:39:03;;;;;;;2.33;0.30;;;23.70;99.00;;;;;;5076317;28;20068;-67
2021/08/02 07:41:30;;;;;;;1.50;0.50;;;25.10;96.60;;;;;;5079974;28;20534;-67
2021/08/02 07:43:56;;;;;;;2.20;0.50;;;26.00;94.70;;;;;;5079066;28;20143;-68
2021/08/02 07:46:22;;;;;;;4.10;0.63;;;27.20;91.40;;;;;;5059322;28;20039;-67
2021/08/02 07:48:51;;;;;;;3.85;0.60;;;28.20;89.00;;;;;;5073340;28;20040;-68
2021/08/02 07:51:18;;;;;;;3.08;0.55;;;29.20;80.70;;;;;;5073927;28;20143;-67
2021/08/02 07:53:43;;;;;;;4.88;0.98;;;28.80;77.60;;;;;;5077338;28;20020;-67
2021/08/02 07:56:09;;;;;;;6.63;0.73;;;27.50;77.20;;;;;;5075316;28;20588;-67
2021/08/02 07:58:35;;;;;;;2.65;0.85;;;26.40;79.00;;;;;;5079480;28;20085;-67
2021/08/02 08:01:00;;;;;;;2.33;0.50;;;25.20;81.60;;;;;;5075319;28;20036;-67
2021/08/02 08:03:26;;;;;;;4.50;0.45;;;23.90;85.20;;;;;;5084918;28;20028;-67
2021/08/02 08:05:52;;;;;;;2.20;0.40;;;22.90;89.20;;;;;;5077520;28;20111;-67
2021/08/02 08:08:20;;;;;;;3.83;0.43;;;21.90;91.40;;;;;;5084922;28;20422;-66
2021/08/02 08:10:45;;;;;;;2.28;0.35;;;21.20;92.60;;;;;;5086475;28;20021;-67
2021/08/02 08:13:11;;;;;;;11.23;0.60;;;20.60;94.10;;;;;;5085046;28;20507;-67
2021/08/02 08:15:37;;;;;;;2.47;0.45;;;20.10;95.60;;;;;;5079338;28;20039;-66
2021/08/02 08:18:02;;;;;;;3.50;0.68;;;19.60;97.80;;;;;;5085099;28;20032;-69
2021/08/02 08:20:28;;;;;;;3.38;0.63;;;19.20;99.90;;;;;;5083773;28;20165;-66
2021/08/02 08:22:54;;;;;;;1.35;0.20;;;18.90;99.90;;;;;;5086628;28;20032;-66
2021/08/02 08:25:20;;;;;;;3.40;0.50;;;18.70;99.90;;;;;;5062188;28;20811;-65
2021/08/02 08:27:46;;;;;;;1.98;0.30;;;18.50;99.90;;;;;;5085741;28;20025;-66
2021/08/02 08:30:14;;;;;;;1.13;0.30;;;18.50;99.90;;;;;;5075994;28;20051;-66
2021/08/02 08:32:39;;;;;;;2.85;0.52;;;18.40;99.90;;;;;;5085693;28;20509;-66
2021/08/02 08:35:06;;;;;;;2.42;0.40;;;18.40;99.90;;;;;;5080221;28;20036;-66
2021/08/02 08:37:32;;;;;;;2.67;0.30;;;18.40;99.90;;;;;;5086480;28;20038;-66
2021/08/02 08:39:58;;;;;;;1.50;0.20;;;18.60;99.90;;;;;;5081798;28;20590;-66
2021/08/02 08:42:23;;;;;;;2.20;0.40;;;18.60;99.90;;;;;;5076533;28;20078;-66
2021/08/02 08:44:49;;;;;;;2.08;0.43;;;18.70;99.90;;;;;;5086168;28;20032;-66
2021/08/02 08:47:15;;;;;;;1.55;0.30;;;18.80;99.90;;;;;;5055479;28;20432;-66
2021/08/02 08:49:41;;;;;;;1.58;0.20;;;18.90;99.90;;;;;;5084150;28;20046;-66
2021/08/02 08:52:07;;;;;;;0.60;0.10;;;19.10;99.90;;;;;;5080024;28;20036;-66
2021/08/02 08:54:34;;;;;;;2.80;0.65;;;19.30;99.90;;;;;;5085964;28;20028;-66
2021/08/02 08:57:00;;;;;;;3.30;0.30;;;19.50;99.90;;;;;;5086509;28;20036;-66
2021/08/02 08:59:26;;;;;;;2.88;0.50;;;19.70;99.90;;;;;;5084623;28;20035;-66
2021/08/02 09:02:02;;;;;;;1.45;0.30;;;20.20;99.90;;;;;;5079460;28;20043;-67
2021/08/02 09:04:30;;;;;;;4.40;0.30;;;20.70;99.90;;;;;;5077436;28;20043;-67
2021/08/02 09:06:59;;;;;;;2.05;0.40;;;21.20;99.00;;;;;;5085404;28;20025;-67
2021/08/02 09:09:29;;;;;;;2.88;0.28;;;21.80;97.90;;;;;;5084971;28;20028;-67
2021/08/02 09:12:04;;;;;;;2.35;0.63;;;22.40;97.50;;;;;;5086340;28;20051;-67
2021/08/02 09:14:30;;;;;;;4.55;0.65;;;22.60;95.90;;;;;;5076110;28;20028;-67
2021/08/02 09:16:57;;;;;;;3.75;0.73;;;22.60;93.80;;;;;;5081898;28;20044;-67
2021/08/02 09:19:23;;;;;;;4.28;0.55;;;22.40;94.90;;;;;;5084478;28;20051;-67
2021/08/02 09:21:54;;;;;;;1.65;0.30;;;22.50;94.50;;;;;;5085537;28;20079;-67
2021/08/02 09:24:30;;;;;;;1.77;0.43;;;22.30;95.70;;;;;;5085153;28;20504;-67
2021/08/02 09:26:56;;;;;;;3.72;0.63;;;22.20;95.90;;;;;;5079960;28;20035;-67
2021/08/02 09:29:31;;;;;;;1.45;0.40;;;22.00;96.00;;;;;;5049616;28;20396;-67
2021/08/02 09:31:57;;;;;;;4.10;0.40;;;21.90;96.00;;;;;;5075995;28;20029;-67
2021/08/02 09:34:23;;;;;;;2.45;0.50;;;21.80;96.20;;;;;;5058543;28;20028;-67
2021/08/02 09:36:59;;;;;;;3.10;0.70;;;21.50;96.00;;;;;;5080094;28;20024;-67
2021/08/02 09:39:30;;;;;;;1.58;0.65;;;21.30;96.30;;;;;;5076178;28;20115;-67
2021/08/02 09:42:10;;;;;;;1.95;0.40;;;21.10;97.00;;;;;;5075358;28;20767;-67
2021/08/02 09:44:35;;;;;;;;;;;21.00;96.70;;;;;;5081212;28;20059;-66
2021/08/02 09:47:07;;;;;;;3.22;0.28;;;20.70;96.90;;;;;;5062420;28;19959;-66
2021/08/02 09:49:47;;;;;;;1.48;0.43;;;20.70;96.90;;;;;;5081935;28;20093;-66
2021/08/02 09:52:14;;;;;;;2.72;0.50;;;20.70;96.80;;;;;;5057708;28;20044;-66
2021/08/02 09:54:40;;;;;;;5.78;0.63;;;20.70;95.40;;;;;;5083236;28;20047;-66
2021/08/02 09:57:07;;;;;;;3.75;0.80;;;20.70;95.50;;;;;;5084628;28;20020;-66
2021/08/02 09:59:35;;;;;;;4.05;0.40;;;20.70;96.60;;;;;;5081889;28;20032;-66
2021/08/02 10:02:01;;;;;;;2.67;0.75;;;20.70;98.60;;;;;;5084446;28;20661;-66
2021/08/02 10:04:30;;;;;;;1.80;0.32;;;20.70;98.80;;;;;;5079203;28;20042;-66
2021/08/02 10:06:56;;;;;;;1.58;0.60;;;20.70;99.00;;;;;;5077667;28;20488;-66
2021/08/02 10:09:22;;;;;;;1.45;0.40;;;20.70;97.60;;;;;;5071123;28;20064;-66
2021/08/02 10:11:47;;;;;;;3.65;0.40;;;20.80;98.20;;;;;;5061332;28;20052;-66
2021/08/02 10:14:14;;;;;;;1.17;0.20;;;20.90;98.20;;;;;;5076626;28;20044;-66
2021/08/02 10:16:44;;;;;;;1.90;0.65;;;21.10;99.00;;;;;;5057985;28;20038;-66
2021/08/02 10:19:11;;;;;;;4.90;0.50;;;21.20;98.80;;;;;;5082889;28;20048;-67
2021/08/02 10:21:59;;;;;;;0.60;0.30;;;21.40;98.80;;;;;;5084758;28;20029;-66
2021/08/02 10:24:25;;;;;;;5.75;0.70;;;21.40;99.40;;;;;;5079105;28;20105;-66
2021/08/02 10:26:56;;;;;;;2.05;0.45;;;21.60;99.50;;;;;;5083069;28;20052;-66
2021/08/02 10:29:22;;;;;;;1.80;0.30;;;21.50;98.50;;;;;;5044689;28;20040;-66
2021/08/02 10:31:53;;;;;;;4.80;0.70;;;21.50;98.40;;;;;;5082871;28;20503;-66
2021/08/02 10:34:24;;;;;;;1.00;0.30;;;21.60;99.20;;;;;;5084342;28;20475;-66
2021/08/02 10:37:06;;;;;;;20.63;0.95;;;21.60;97.90;;;;;;5081838;28;20027;-66
2021/08/02 10:39:34;;;;;;;4.38;0.70;;;21.70;98.00;;;;;;5080999;28;20032;-66
2021/08/02 10:42:06;;;;;;;0.93;0.20;;;21.80;98.30;;;;;;5082257;28;20109;-66
2021/08/02 10:44:31;;;;;;;4.10;0.77;;;21.90;96.60;;;;;;5080165;28;20036;-66
2021/08/02 10:47:05;;;;;;;2.67;0.47;;;22.00;96.20;;;;;;5083582;28;20503;-66
2021/08/02 10:49:31;;;;;;;2.35;0.60;;;22.00;96.50;;;;;;5075317;28;20040;-66
2021/08/02 10:51:57;;;;;;;2.88;0.60;;;21.90;96.10;;;;;;5054979;28;20024;-66
2021/08/02 10:54:24;;;;;;;1.55;0.13;;;21.90;95.00;;;;;;5074460;28;20020;-66
2021/08/02 10:56:50;;;;;;;3.20;0.70;;;22.10;96.10;;;;;;5081586;28;20088;-67
2021/08/02 10:59:20;;;;;;;4.95;0.40;;;22.20;96.30;;;;;;5049432;28;20397;-66
2021/08/02 11:01:51;;;;;;;1.35;0.40;;;22.30;94.00;;;;;;5084058;28;20031;-66
2021/08/02 11:04:18;;;;;;;2.80;0.28;;;22.30;95.50;;;;;;5080237;28;20090;-67
2021/08/02 11:06:47;;;;;;;2.25;0.50;;;22.30;94.60;;;;;;5080805;28;20040;-66
2021/08/02 11:09:14;;;;;;;2.33;0.40;;;22.10;94.90;;;;;;5070638;28;20029;-67
2021/08/02 11:11:40;;;;;;;4.63;0.60;;;22.00;94.80;;;;;;5074278;28;20024;-67
2021/08/02 11:14:32;;;;;;;1.45;0.32;;;21.90;95.80;;;;;;5074667;28;20031;-66
2021/08/02 11:16:57;;;;;;;2.90;0.40;;;21.80;96.20;;;;;;5049955;28;20037;-66
2021/08/02 11:19:28;;;;;;;2.72;0.40;;;21.70;95.90;;;;;;5076596;28;20028;-66
2021/08/02 11:22:05;;;;;;;7.20;0.45;;;21.50;95.60;;;;;;5070979;28;20036;-65
2021/08/02 11:25:00;;;;;;;1.20;0.28;;;21.50;95.50;;;;;;5078236;28;20115;-66
2021/08/02 11:27:26;;;;;;;1.90;0.30;;;21.40;95.30;;;;;;5067984;28;20087;-67
2021/08/02 11:29:53;;;;;;;3.13;0.30;;;21.40;95.30;;;;;;5074997;28;20474;-68
2021/08/02 11:32:20;;;;;;;3.45;0.32;;;21.40;94.80;;;;;;5076119;28;20543;-65
2021/08/02 11:34:53;;;;;;;1.13;0.20;;;21.40;95.30;;;;;;5051245;28;20166;-65
2021/08/02 11:37:24;;;;;;;2.40;0.43;;;21.50;96.00;;;;;;5072442;28;20054;-66
2021/08/02 11:40:01;;;;;;;2.22;0.28;;;21.60;95.30;;;;;;5084572;28;20028;-65
2021/08/02 11:42:29;;;;;;;1.95;0.25;;;21.60;94.80;;;;;;5076170;28;20040;-66
2021/08/02 11:44:56;;;;;;;0.75;0.30;;;21.70;95.50;;;;;;5084382;28;20028;-66
2021/08/02 11:47:27;;;;;;;0.85;0.15;;;21.60;94.00;;;;;;5077810;28;20042;-65
2021/08/02 11:49:56;;;;;;;2.28;0.60;;;21.60;94.40;;;;;;5087712;28;20040;-66
2021/08/02 11:52:25;;;;;;;2.17;0.30;;;21.80;95.50;;;;;;5085424;28;20039;-66
2021/08/02 11:55:00;;;;;;;9.98;0.85;;;21.90;94.80;;;;;;5084609;28;20389;-66
2021/08/02 11:57:26;;;;;;;1.35;0.30;;;22.10;94.60;;;;;;5080401;28;20201;-66
2021/08/02 11:59:56;;;;;;;2.10;0.80;;;22.00;94.30;;;;;;5081941;28;20556;-65
2021/08/02 12:02:38;;;;;;;1.38;0.40;;;22.10;93.90;;;;;;5085892;28;20032;-66
2021/08/02 12:05:24;;;;;;;1.10;0.38;;;22.10;94.60;;;;;;5073210;28;20037;-65
2021/08/02 12:07:50;;;;;;;3.53;0.40;;;22.00;93.60;;;;;;5062592;28;20044;-66
2021/08/02 12:10:18;;;;;;;2.17;0.47;;;21.90;94.00;;;;;;5076661;28;20431;-65
2021/08/02 12:12:44;;;;;;;1.95;0.30;;;22.00;94.30;;;;;;5078021;28;20519;-66
2021/08/02 12:15:10;;;;;;;2.45;0.68;;;22.00;94.10;;;;;;5081825;28;20082;-66
2021/08/02 12:17:50;;;;;;;1.50;0.40;;;22.00;92.30;;;;;;5076819;28;20036;-65
2021/08/02 12:20:27;;;;;;;2.40;0.30;;;22.10;93.90;;;;;;5066724;28;20071;-65
2021/08/02 12:22:52;;;;;;;4.85;1.00;;;22.00;91.80;;;;;;5077427;28;20036;-66
2021/08/02 12:25:18;;;;;;;1.00;0.17;;;21.90;92.10;;;;;;5084647;28;20030;-66
2021/08/02 12:27:43;;;;;;;1.17;0.15;;;22.00;92.90;;;;;;5086898;28;20125;-65
2021/08/02 12:30:12;;;;;;;1.70;0.32;;;21.90;91.70;;;;;;5083232;28;20094;-66
2021/08/02 12:32:39;;;;;;;3.47;0.47;;;21.90;91.30;;;;;;5084727;28;20043;-66
2021/08/02 12:35:15;;;;;;;1.85;0.40;;;21.90;94.00;;;;;;5084520;28;20039;-66
2021/08/02 12:37:43;;;;;;;2.45;0.52;;;21.90;93.20;;;;;;5085964;28;20024;-66
2021/08/02 12:40:15;;;;;;;0.10;0.10;;;22.00;92.00;;;;;;5079536;28;20039;-66
2021/08/02 12:42:46;;;;;;;2.30;0.47;;;22.00;90.60;;;;;;5085090;28;20097;-66
2021/08/02 12:45:13;;;;;;;0.93;0.20;;;22.00;92.10;;;;;;5085952;28;20036;-66
2021/08/02 12:47:39;;;;;;;1.52;0.30;;;22.00;93.40;;;;;;5084653;28;20843;-66
2021/08/02 12:50:07;;;;;;;1.13;0.32;;;22.00;91.80;;;;;;5085733;28;20046;-66
2021/08/02 12:52:33;;;;;;;2.42;0.22;;;21.90;92.80;;;;;;5085324;28;20067;-65
2021/08/02 12:55:00;;;;;;;3.13;0.38;;;21.80;92.60;;;;;;5075014;28;20078;-66